createdAt,value
2018-12-03T00:00:19.445Z,3.10
2018-12-03T00:02:48.145Z,2.60
2018-12-03T00:05:16.914Z,2.60
2018-12-03T00:07:45.530Z,2.67
2018-12-03T00:10:14.237Z,2.73
2018-12-03T00:12:42.744Z,2.80
2018-12-03T00:15:11.251Z,2.60
2018-12-03T00:17:39.850Z,2.53
2018-12-03T00:20:09.637Z,2.77
2018-12-03T00:22:38.106Z,2.20
2018-12-03T00:25:07.755Z,3.03
2018-12-03T00:27:36.526Z,2.30
2018-12-03T00:30:08.803Z,2.30
2018-12-03T00:32:37.774Z,2.67
2018-12-03T00:35:08.195Z,3.07
2018-12-03T00:37:36.910Z,2.77
2018-12-03T00:40:06.834Z,2.90
2018-12-03T00:42:35.580Z,2.50
2018-12-03T00:45:04.239Z,2.33
2018-12-03T00:47:32.726Z,2.30
2018-12-03T00:50:01.196Z,2.67
2018-12-03T00:52:29.681Z,2.43
2018-12-03T00:54:58.167Z,2.80
2018-12-03T00:57:26.634Z,2.20
2018-12-03T00:59:55.132Z,2.20
2018-12-03T01:02:24.967Z,1.87
2018-12-03T01:04:54.167Z,2.57
2018-12-03T01:07:22.997Z,1.97
2018-12-03T01:09:51.597Z,2.20
2018-12-03T01:12:20.279Z,2.00
2018-12-03T01:14:48.831Z,2.10
2018-12-03T01:17:17.334Z,1.90
2018-12-03T01:19:45.834Z,1.70
2018-12-03T01:22:14.307Z,2.30
2018-12-03T01:24:42.773Z,1.93
2018-12-03T01:27:11.290Z,2.53
2018-12-03T01:29:39.762Z,2.60
2018-12-03T01:32:08.270Z,1.93
2018-12-03T01:34:36.836Z,2.00
2018-12-03T01:37:05.397Z,2.40
2018-12-03T01:39:33.882Z,1.73
2018-12-03T01:42:02.370Z,1.50
2018-12-03T01:44:30.890Z,1.10
2018-12-03T01:46:59.443Z,1.10
2018-12-03T01:49:27.922Z,1.10
2018-12-03T01:51:56.420Z,1.00
2018-12-03T01:54:24.916Z,1.60
2018-12-03T01:56:53.414Z,1.93
2018-12-03T01:59:21.878Z,2.93
2018-12-03T02:01:50.380Z,3.37
2018-12-03T02:04:18.868Z,2.80
2018-12-03T02:06:47.395Z,2.40
2018-12-03T02:09:15.862Z,2.20
2018-12-03T02:11:44.368Z,2.50
2018-12-03T02:14:13.049Z,2.17
2018-12-03T02:16:41.828Z,2.30
2018-12-03T02:19:10.414Z,2.50
2018-12-03T02:21:38.883Z,2.37
2018-12-03T02:24:07.381Z,2.70
2018-12-03T02:26:36.094Z,2.60
2018-12-03T02:29:04.932Z,3.43
2018-12-03T02:31:33.430Z,3.03
2018-12-03T02:34:02.096Z,2.77
2018-12-03T02:36:30.582Z,2.43
2018-12-03T02:38:59.081Z,2.77
2018-12-03T02:41:27.610Z,2.83
2018-12-03T02:43:56.259Z,3.13
2018-12-03T02:46:24.748Z,2.63
2018-12-03T02:48:53.284Z,3.33
2018-12-03T02:51:21.759Z,3.40
2018-12-03T02:53:50.237Z,3.40
2018-12-03T02:56:18.761Z,3.13
2018-12-03T02:58:47.237Z,3.67
2018-12-03T03:01:15.792Z,3.60
2018-12-03T03:03:44.405Z,3.00
2018-12-03T03:06:13.175Z,4.27
2018-12-03T03:08:41.663Z,4.03
2018-12-03T03:11:10.137Z,4.97
2018-12-03T03:16:12.627Z,5.33
2018-12-03T03:18:41.121Z,5.17
2018-12-03T03:21:09.610Z,3.93
2018-12-03T03:23:38.094Z,4.00
2018-12-03T03:26:07.089Z,4.00
2018-12-03T03:28:35.568Z,3.87
2018-12-03T03:31:04.252Z,3.00
2018-12-03T03:33:32.744Z,4.83
2018-12-03T03:36:01.261Z,3.90
2018-12-03T03:38:29.737Z,3.80
2018-12-03T03:40:58.279Z,2.93
2018-12-03T03:43:26.790Z,3.83
2018-12-03T03:45:55.339Z,3.50
2018-12-03T03:48:23.898Z,4.07
2018-12-03T03:50:52.741Z,5.00
2018-12-03T03:53:21.239Z,5.30
2018-12-03T03:55:49.747Z,4.87
2018-12-03T03:58:18.342Z,4.23
2018-12-03T04:00:46.902Z,3.87
2018-12-03T04:03:15.615Z,5.10
2018-12-03T04:05:44.103Z,4.03
2018-12-03T04:08:12.647Z,5.47
2018-12-03T04:10:41.134Z,4.90
2018-12-03T04:13:09.704Z,4.17
2018-12-03T04:15:38.242Z,5.00
2018-12-03T04:18:07.037Z,5.57
2018-12-03T04:20:35.491Z,4.83
2018-12-03T04:23:04.012Z,4.23
2018-12-03T04:25:32.523Z,4.73
2018-12-03T04:28:01.161Z,4.53
2018-12-03T04:30:29.633Z,4.57
2018-12-03T04:32:58.123Z,4.43
2018-12-03T04:35:27.927Z,4.63
2018-12-03T04:37:56.483Z,5.30
2018-12-03T04:40:25.011Z,6.97
2018-12-03T04:42:53.681Z,7.03
2018-12-03T04:45:22.159Z,5.90
2018-12-03T04:47:51.068Z,4.37
2018-12-03T04:50:20.766Z,4.40
2018-12-03T04:52:49.311Z,5.23
2018-12-03T04:55:18.961Z,5.30
2018-12-03T04:57:47.483Z,5.77
2018-12-03T05:00:18.011Z,5.80
2018-12-03T05:02:48.075Z,6.67
2018-12-03T05:05:16.708Z,6.53
2018-12-03T05:07:45.245Z,5.87
2018-12-03T05:10:16.928Z,6.57
2018-12-03T05:12:46.825Z,7.10
2018-12-03T05:15:15.501Z,6.67
2018-12-03T05:17:44.599Z,6.33
2018-12-03T05:20:20.244Z,6.07
2018-12-03T05:22:48.748Z,5.67
2018-12-03T05:25:19.385Z,5.43
2018-12-03T05:27:45.797Z,6.40
2018-12-03T05:30:15.654Z,6.13
2018-12-03T05:32:44.808Z,5.93
2018-12-03T05:35:19.820Z,5.43
2018-12-03T05:37:48.324Z,5.10
2018-12-03T05:40:19.396Z,5.37
2018-12-03T05:42:47.951Z,5.93
2018-12-03T05:45:16.486Z,6.00
2018-12-03T05:47:45.372Z,6.17
2018-12-03T05:50:15.065Z,5.73
2018-12-03T05:52:44.616Z,6.43
2018-12-03T05:55:13.644Z,5.83
2018-12-03T05:57:42.720Z,4.90
2018-12-03T06:00:12.882Z,5.90
2018-12-03T06:02:41.404Z,6.60
2018-12-03T06:05:11.076Z,5.40
2018-12-03T06:07:39.622Z,7.37
2018-12-03T06:10:24.831Z,5.67
2018-12-03T06:12:53.327Z,6.33
2018-12-03T06:15:22.282Z,6.63
2018-12-03T06:17:52.984Z,7.30
2018-12-03T06:20:22.232Z,8.13
2018-12-03T06:22:51.857Z,6.70
2018-12-03T06:25:22.762Z,6.40
2018-12-03T06:27:51.270Z,5.80
2018-12-03T06:30:21.522Z,6.53
2018-12-03T06:32:50.090Z,7.27
2018-12-03T06:35:19.023Z,7.20
2018-12-03T06:37:48.074Z,7.60
2018-12-03T06:40:17.945Z,7.10
2018-12-03T06:42:46.558Z,7.67
2018-12-03T06:45:17.349Z,7.13
2018-12-03T06:47:48.450Z,8.47
2018-12-03T06:50:16.946Z,8.37
2018-12-03T06:52:45.620Z,8.27
2018-12-03T06:55:14.124Z,9.03
2018-12-03T06:57:42.632Z,6.90
2018-12-03T07:00:14.625Z,7.07
2018-12-03T07:02:43.613Z,6.70
2018-12-03T07:05:12.371Z,7.07
2018-12-03T07:07:41.655Z,7.13
2018-12-03T07:10:13.525Z,5.80
2018-12-03T07:12:42.436Z,5.27
2018-12-03T07:15:12.455Z,5.40
2018-12-03T07:17:40.945Z,5.40
2018-12-03T07:20:12.546Z,6.23
2018-12-03T07:22:41.495Z,6.27
2018-12-03T07:25:11.213Z,5.77
2018-12-03T07:27:39.797Z,6.10
2018-12-03T07:30:24.266Z,6.07
2018-12-03T07:32:53.059Z,5.87
2018-12-03T07:35:22.756Z,5.67
2018-12-03T07:37:52.874Z,5.23
2018-12-03T07:40:21.381Z,5.97
2018-12-03T07:42:49.895Z,5.73
2018-12-03T07:45:20.791Z,5.17
2018-12-03T07:47:49.289Z,6.57
2018-12-03T07:50:19.050Z,5.10
2018-12-03T07:52:47.592Z,5.43
2018-12-03T07:55:22.352Z,5.60
2018-12-03T07:58:00.414Z,5.30
2018-12-03T08:00:30.806Z,6.20
2018-12-03T08:02:59.308Z,5.70
2018-12-03T08:05:28.064Z,5.87
2018-12-03T08:07:56.733Z,5.97
2018-12-03T08:10:25.224Z,5.80
2018-12-03T08:12:54.119Z,6.40
2018-12-03T08:15:23.042Z,5.23
2018-12-03T08:17:53.544Z,5.73
2018-12-03T08:21:28.231Z,5.53
2018-12-03T08:24:05.877Z,6.03
2018-12-03T08:26:34.388Z,6.13
2018-12-03T08:29:02.905Z,4.67
2018-12-03T08:31:31.377Z,5.17
2018-12-03T08:34:00.042Z,5.87
2018-12-03T08:36:28.546Z,5.07
2018-12-03T08:38:57.027Z,5.80
2018-12-03T08:41:25.559Z,5.67
2018-12-03T08:43:54.043Z,5.50
2018-12-03T08:46:22.539Z,5.17
2018-12-03T08:48:51.087Z,4.93
2018-12-03T08:51:19.599Z,6.53
2018-12-03T08:53:48.965Z,5.03
2018-12-03T08:56:17.469Z,4.90
2018-12-03T08:58:46.081Z,5.17
2018-12-03T09:01:16.593Z,5.27
2018-12-03T09:03:48.311Z,5.47
2018-12-03T09:06:16.811Z,5.80
2018-12-03T09:08:48.363Z,6.90
2018-12-03T09:11:18.073Z,6.37
2018-12-03T09:13:46.774Z,6.80
2018-12-03T09:16:15.252Z,6.83
2018-12-03T09:18:43.876Z,5.80
2018-12-03T09:21:13.865Z,6.17
2018-12-03T09:23:43.644Z,5.87
2018-12-03T09:26:12.789Z,6.27
2018-12-03T09:28:41.285Z,5.50
2018-12-03T09:31:39.766Z,5.17
2018-12-03T09:34:07.270Z,5.27
2018-12-03T09:36:34.772Z,5.27
2018-12-03T09:39:02.289Z,5.13
2018-12-03T09:41:30.320Z,5.33
2018-12-03T09:43:57.814Z,4.40
2018-12-03T09:46:25.373Z,5.53
2018-12-03T09:48:54.848Z,4.47
2018-12-03T09:51:24.318Z,4.90
2018-12-03T09:53:52.654Z,4.97
2018-12-03T09:56:20.160Z,4.23
2018-12-03T09:58:47.660Z,4.10
2018-12-03T10:01:15.172Z,4.80
2018-12-03T10:03:42.668Z,3.67
2018-12-03T10:06:10.234Z,4.13
2018-12-03T10:08:37.737Z,4.10
2018-12-03T10:11:05.235Z,3.53
2018-12-03T10:13:32.727Z,4.50
2018-12-03T10:16:00.815Z,4.30
2018-12-03T10:18:28.315Z,4.30
2018-12-03T10:20:55.817Z,4.00
2018-12-03T10:23:23.320Z,3.83
2018-12-03T10:25:50.994Z,3.70
2018-12-03T10:28:18.497Z,4.30
2018-12-03T10:30:45.995Z,3.60
2018-12-03T10:33:15.295Z,3.83
2018-12-03T10:35:42.802Z,4.03
2018-12-03T10:38:10.403Z,3.50
2018-12-03T10:40:38.575Z,4.47
2018-12-03T10:43:08.902Z,3.83
2018-12-03T10:45:36.453Z,3.57
2018-12-03T10:48:03.958Z,3.80
2018-12-03T10:50:32.105Z,4.67
2018-12-03T10:52:59.604Z,3.63
2018-12-03T10:55:27.114Z,3.67
2018-12-03T10:57:54.667Z,4.10
2018-12-03T11:00:24.141Z,3.90
2018-12-03T11:02:57.440Z,4.43
2018-12-03T11:08:30.525Z,4.30
2018-12-03T11:10:58.026Z,3.80
2018-12-03T11:13:25.532Z,3.97
2018-12-03T11:15:53.040Z,3.97
2018-12-03T11:18:20.561Z,4.47
2018-12-03T11:20:48.171Z,4.77
2018-12-03T11:23:16.342Z,6.33
2018-12-03T11:25:43.844Z,6.00
2018-12-03T11:28:12.336Z,4.73
2018-12-03T11:30:42.066Z,4.67
2018-12-03T11:33:09.565Z,5.37
2018-12-03T11:35:37.077Z,4.30
2018-12-03T11:38:05.754Z,3.77
2018-12-03T11:40:34.094Z,4.13
2018-12-03T11:43:01.598Z,3.97
2018-12-03T11:45:29.107Z,3.90
2018-12-03T11:47:56.608Z,3.10
2018-12-03T11:50:24.108Z,2.60
2018-12-03T11:52:51.613Z,2.70
2018-12-03T11:55:19.104Z,2.80
2018-12-03T11:57:46.608Z,3.33
2018-12-03T12:00:15.184Z,2.73
2018-12-03T12:02:42.700Z,2.10
2018-12-03T12:05:10.197Z,1.97
2018-12-03T12:07:42.374Z,1.90
2018-12-03T12:10:07.817Z,2.10
2018-12-03T12:12:35.308Z,2.10
2018-12-03T12:15:03.073Z,2.43
2018-12-03T12:17:30.580Z,3.00
2018-12-03T12:19:58.079Z,2.83
2018-12-03T12:22:25.579Z,3.40
2018-12-03T12:24:53.096Z,4.17
2018-12-03T12:27:20.600Z,4.20
2018-12-03T12:29:48.109Z,3.87
2018-12-03T12:32:15.622Z,3.80
2018-12-03T12:34:43.121Z,4.93
2018-12-03T12:37:10.627Z,4.60
2018-12-03T12:39:38.117Z,3.60
2018-12-03T12:42:05.693Z,3.70
2018-12-03T12:44:33.188Z,4.67
2018-12-03T12:47:00.694Z,4.23
2018-12-03T12:49:28.190Z,3.93
2018-12-03T12:51:55.692Z,4.10
2018-12-03T12:54:23.205Z,3.97
2018-12-03T12:56:50.711Z,3.80
2018-12-03T12:59:18.208Z,3.37
2018-12-03T13:01:45.716Z,3.77
2018-12-03T13:04:13.538Z,3.97
2018-12-03T13:06:41.045Z,4.83
2018-12-03T13:09:09.490Z,3.77
2018-12-03T13:11:36.998Z,3.67
2018-12-03T13:14:04.928Z,3.70
2018-12-03T13:16:33.010Z,3.53
2018-12-03T13:19:00.532Z,4.10
2018-12-03T13:21:28.060Z,3.07
2018-12-03T13:23:55.589Z,2.90
2018-12-03T13:26:23.114Z,3.77
2018-12-03T13:28:50.616Z,3.37
2018-12-03T13:31:18.120Z,3.87
2018-12-03T13:33:45.619Z,3.33
2018-12-03T13:36:13.114Z,4.63
2018-12-03T13:38:40.617Z,3.93
2018-12-03T13:41:08.125Z,4.07
2018-12-03T13:43:35.744Z,4.40
2018-12-03T13:46:03.248Z,3.73
2018-12-03T13:48:30.754Z,4.40
2018-12-03T13:50:58.328Z,3.97
2018-12-03T13:53:25.829Z,4.00
2018-12-03T13:55:54.214Z,4.13
2018-12-03T13:58:21.857Z,4.80
2018-12-03T14:00:49.356Z,3.77
2018-12-03T14:03:16.854Z,4.07
2018-12-03T14:05:44.403Z,5.37
2018-12-03T14:08:12.476Z,5.07
2018-12-03T14:10:41.216Z,4.40
2018-12-03T14:13:08.709Z,4.80
2018-12-03T14:15:36.846Z,4.80
2018-12-03T14:18:06.375Z,4.97
2018-12-03T14:20:33.877Z,5.20
2018-12-03T14:23:01.451Z,5.33
2018-12-03T14:25:28.953Z,4.57
2018-12-03T14:27:56.455Z,4.60
2018-12-03T14:30:23.993Z,5.03
2018-12-03T14:32:51.549Z,4.53
2018-12-03T14:35:19.055Z,5.23
2018-12-03T14:37:46.589Z,5.23
2018-12-03T14:40:14.083Z,4.63
2018-12-03T14:42:41.578Z,5.00
2018-12-03T14:45:09.082Z,5.73
2018-12-03T14:47:36.583Z,4.77
2018-12-03T14:50:05.209Z,5.37
2018-12-03T14:52:32.713Z,5.97
2018-12-03T14:55:00.213Z,5.83
2018-12-03T14:57:27.713Z,5.97
2018-12-03T14:59:55.304Z,5.23
2018-12-03T15:02:22.977Z,4.70
2018-12-03T15:04:50.505Z,5.13
2018-12-03T15:07:18.052Z,5.30
2018-12-03T15:09:45.545Z,4.77
2018-12-03T15:12:13.534Z,4.03
2018-12-03T15:14:41.039Z,3.97
2018-12-03T15:17:08.542Z,4.40
2018-12-03T15:19:36.034Z,4.70
2018-12-03T15:22:03.530Z,5.20
2018-12-03T15:24:31.052Z,4.10
2018-12-03T15:26:58.563Z,4.23
2018-12-03T15:29:26.070Z,4.23
2018-12-03T15:31:53.606Z,3.83
2018-12-03T15:34:21.110Z,5.10
2018-12-03T15:36:48.621Z,4.27
2018-12-03T15:39:16.122Z,4.93
2018-12-03T15:41:43.740Z,3.97
2018-12-03T15:44:11.248Z,4.50
2018-12-03T15:46:38.749Z,4.70
2018-12-03T15:49:06.246Z,4.43
2018-12-03T15:51:33.751Z,5.40
2018-12-03T15:54:01.252Z,5.03
2018-12-03T15:56:28.770Z,6.03
2018-12-03T15:58:56.307Z,5.10
2018-12-03T16:01:23.813Z,5.03
2018-12-03T16:03:51.543Z,5.30
2018-12-03T16:06:19.039Z,5.20
2018-12-03T16:08:46.537Z,5.17
2018-12-03T16:11:14.035Z,5.20
2018-12-03T16:13:41.535Z,5.10
2018-12-03T16:16:09.173Z,5.23
2018-12-03T16:18:36.726Z,5.03
2018-12-03T16:21:04.235Z,5.63
2018-12-03T16:23:31.729Z,6.33
2018-12-03T16:25:59.563Z,5.63
2018-12-03T16:28:27.063Z,5.93
2018-12-03T16:30:54.565Z,5.93
2018-12-03T16:33:22.079Z,5.93
2018-12-03T16:35:49.653Z,5.63
2018-12-03T16:38:17.663Z,5.17
2018-12-03T16:40:45.166Z,5.23
2018-12-03T16:43:12.665Z,7.77
2018-12-03T16:45:40.170Z,5.87
2018-12-03T16:48:07.681Z,5.80
2018-12-03T16:50:35.212Z,6.40
2018-12-03T16:53:02.717Z,5.90
2018-12-03T16:55:30.220Z,5.63
2018-12-03T16:57:57.737Z,6.43
2018-12-03T17:00:25.243Z,4.73
2018-12-03T17:02:52.745Z,6.07
2018-12-03T17:05:20.251Z,6.30
2018-12-03T17:07:47.758Z,5.53
2018-12-03T17:10:15.267Z,6.53
2018-12-03T17:12:42.768Z,6.03
2018-12-03T17:15:10.261Z,6.03
2018-12-03T17:17:37.773Z,5.27
2018-12-03T17:20:07.910Z,6.13
2018-12-03T17:22:35.418Z,5.80
2018-12-03T17:25:03.113Z,5.07
2018-12-03T17:27:30.612Z,6.13
2018-12-03T17:29:58.213Z,6.37
2018-12-03T17:32:25.769Z,5.53
2018-12-03T17:34:53.285Z,5.50
2018-12-03T17:37:20.775Z,6.30
2018-12-03T17:39:48.353Z,5.07
2018-12-03T17:42:15.861Z,5.70
2018-12-03T17:44:43.357Z,5.10
2018-12-03T17:47:17.939Z,5.40
2018-12-03T17:49:45.438Z,5.20
2018-12-03T17:52:12.933Z,5.47
2018-12-03T17:54:40.436Z,5.17
2018-12-03T17:57:07.948Z,5.33
2018-12-03T17:59:35.460Z,4.87
2018-12-03T18:02:03.816Z,5.47
2018-12-03T18:04:31.328Z,4.67
2018-12-03T18:06:58.841Z,5.50
2018-12-03T18:09:26.361Z,5.37
2018-12-03T18:11:53.863Z,4.87
2018-12-03T18:14:21.384Z,5.40
2018-12-03T18:16:48.891Z,4.87
2018-12-03T18:19:16.397Z,4.67
2018-12-03T18:21:43.905Z,5.33
2018-12-03T18:24:11.415Z,5.30
2018-12-03T18:26:38.919Z,4.80
2018-12-03T18:29:06.428Z,4.90
2018-12-03T18:31:34.039Z,4.47
2018-12-03T18:34:01.550Z,5.07
2018-12-03T18:36:29.050Z,5.33
2018-12-03T18:38:56.560Z,5.03
2018-12-03T18:41:24.062Z,5.03
2018-12-03T18:43:52.490Z,4.53
2018-12-03T18:46:20.064Z,5.40
2018-12-03T18:48:47.634Z,5.10
2018-12-03T18:51:15.145Z,5.67
2018-12-03T18:53:42.646Z,4.83
2018-12-03T18:56:10.150Z,5.03
2018-12-03T18:58:37.653Z,5.03
2018-12-03T19:01:05.164Z,4.73
2018-12-03T19:03:32.676Z,4.60
2018-12-03T19:06:00.182Z,5.13
2018-12-03T19:08:27.690Z,3.63
2018-12-03T19:10:55.242Z,4.70
2018-12-03T19:13:22.752Z,4.10
2018-12-03T19:15:50.257Z,4.23
2018-12-03T19:18:17.772Z,3.70
2018-12-03T19:20:45.299Z,4.23
2018-12-03T19:23:12.801Z,4.00
2018-12-03T19:25:40.307Z,3.60
2018-12-03T19:28:07.813Z,3.83
2018-12-03T19:30:35.323Z,3.90
2018-12-03T19:33:02.826Z,3.90
2018-12-03T19:35:30.329Z,3.40
2018-12-03T19:37:58.030Z,3.57
2018-12-03T19:40:25.715Z,3.40
2018-12-03T19:42:53.212Z,3.97
2018-12-03T19:45:20.869Z,3.67
2018-12-03T19:47:48.373Z,3.97
2018-12-03T19:50:15.875Z,3.53
2018-12-03T19:52:43.817Z,3.30
2018-12-03T19:55:11.453Z,3.27
2018-12-03T19:57:38.987Z,3.87
2018-12-03T20:00:08.643Z,3.20
2018-12-03T20:02:36.153Z,2.70
2018-12-03T20:05:05.790Z,2.87
2018-12-03T20:07:33.301Z,2.70
2018-12-03T20:10:00.811Z,2.80
2018-12-03T20:12:28.307Z,3.03
2018-12-03T20:14:56.862Z,2.77
2018-12-03T20:17:24.634Z,2.53
2018-12-03T20:19:52.125Z,2.23
2018-12-03T20:22:19.622Z,1.90
2018-12-03T20:24:47.123Z,2.13
2018-12-03T20:27:14.685Z,2.10
2018-12-03T20:29:42.453Z,2.13
2018-12-03T20:32:10.029Z,2.03
2018-12-03T20:34:37.595Z,2.00
2018-12-03T20:37:08.928Z,2.80
2018-12-03T20:39:40.371Z,2.70
2018-12-03T20:42:07.888Z,2.87
2018-12-03T20:44:35.384Z,2.73
2018-12-03T20:47:02.889Z,2.03
2018-12-03T20:49:30.661Z,2.63
2018-12-03T20:51:59.615Z,2.77
2018-12-03T20:54:27.113Z,3.00
2018-12-03T20:56:54.620Z,3.00
2018-12-03T20:59:22.127Z,2.70
2018-12-03T21:01:49.631Z,2.57
2018-12-03T21:04:19.129Z,2.70
2018-12-03T21:06:46.633Z,2.80
2018-12-03T21:09:14.140Z,3.60
2018-12-03T21:11:41.635Z,4.00
2018-12-03T21:14:09.135Z,3.57
2018-12-03T21:16:36.640Z,3.30
2018-12-03T21:19:04.133Z,2.60
2018-12-03T21:21:31.629Z,2.70
2018-12-03T21:23:59.133Z,3.00
2018-12-03T21:26:26.695Z,2.20
2018-12-03T21:28:54.192Z,2.23
2018-12-03T21:31:21.692Z,2.40
2018-12-03T21:33:49.179Z,2.20
2018-12-03T21:36:16.678Z,2.10
2018-12-03T21:38:44.173Z,2.00
2018-12-03T21:41:11.669Z,2.17
2018-12-03T21:43:39.211Z,2.17
2018-12-03T21:46:06.715Z,1.90
2018-12-03T21:48:34.217Z,3.07
2018-12-03T21:51:01.783Z,2.17
2018-12-03T21:53:29.282Z,2.20
2018-12-03T21:55:56.772Z,2.20
2018-12-03T21:58:24.278Z,2.50
2018-12-03T22:00:51.778Z,2.00
2018-12-03T22:03:19.279Z,2.20
2018-12-03T22:05:47.762Z,2.40
2018-12-03T22:08:15.264Z,2.50
2018-12-03T22:10:42.755Z,2.73
2018-12-03T22:13:10.336Z,2.90
2018-12-03T22:15:37.890Z,2.97
2018-12-03T22:18:05.388Z,2.97
2018-12-03T22:20:32.880Z,2.87
2018-12-03T22:23:00.544Z,3.27
2018-12-03T22:25:28.050Z,3.07
2018-12-03T22:27:55.592Z,3.40
2018-12-03T22:30:23.093Z,3.30
2018-12-03T22:32:50.591Z,3.17
2018-12-03T22:35:18.082Z,3.03
2018-12-03T22:37:45.574Z,3.10
2018-12-03T22:40:13.068Z,3.67
2018-12-03T22:42:40.558Z,3.27
2018-12-03T22:45:08.057Z,3.10
2018-12-03T22:47:35.572Z,3.10
2018-12-03T22:50:03.074Z,2.80
2018-12-03T22:52:30.566Z,2.63
2018-12-03T22:54:58.062Z,2.60
2018-12-03T22:57:25.553Z,2.87
2018-12-03T22:59:53.052Z,2.70
2018-12-03T23:02:21.384Z,2.37
2018-12-03T23:04:48.884Z,2.37
2018-12-03T23:07:16.370Z,2.70
2018-12-03T23:09:43.866Z,2.33
2018-12-03T23:12:11.358Z,2.40
2018-12-03T23:14:38.848Z,2.67
2018-12-03T23:17:06.379Z,2.83
2018-12-03T23:19:33.875Z,2.30
2018-12-03T23:22:01.369Z,3.10
2018-12-03T23:24:28.875Z,2.50
2018-12-03T23:26:56.365Z,3.40
2018-12-03T23:29:23.886Z,2.77
2018-12-03T23:31:51.377Z,2.43
2018-12-03T23:34:18.886Z,2.70
2018-12-03T23:36:46.386Z,3.07
2018-12-03T23:39:13.891Z,2.60
2018-12-03T23:41:41.453Z,3.00
2018-12-03T23:44:08.951Z,3.13
2018-12-03T23:46:37.309Z,3.17
2018-12-03T23:49:04.865Z,2.47
2018-12-03T23:51:36.158Z,2.93
2018-12-03T23:54:01.872Z,3.27
2018-12-03T23:56:29.395Z,3.63
2018-12-03T23:58:56.936Z,3.70
